CGR weather

Campo Grande Airport
Campo Grande, Mato Grosso do Sul, Brazil

Public forecast

Using degrees Celsius for public forecast. Weather courtesy of forecast.io.

Current aviation weather report (METAR) for Campo Grande Airport

Retrieved 2020/07/14 03:00 UTC (59 minutes ago):

SBCG 140300Z 03003KT CAVOK 20/16 Q1018

Aviation forecast (TAF) for Campo Grande Airport

Retrieved 2020-07-14 00:00 UTC (4 hours ago):

TAF SBCG 132100Z 1400/1424 02005KT CAVOK TN19/1404Z TX30/1417Z BECMG 1416/1418 31008KT 9999 FEW040 BECMG 1420/1422 CAVOK RMK PEG